• Join FlightAware (Why Join?)
  • Login
  • US Flag 
07:14AM EDT


 

Airport Tracker/Info


-or-


 

Live Flight TrackerFlight Track Log ✈ AWE710 ✈ 15-Apr-2013 ✈ KPHL - LSZH / ZRH

Flight Track Log - Related Links

Times and Time Zones

All times are in EDT time to prevent confusion due to time zone crossing. See the AWE710 flight status page for this flight to view local times or setup timezone preferences in your user account.

Time Position Orientation Groundspeed Altitude Reporting Facility
EDT Latitude Longitude Course Direction KTS MPH feet Rate Location/Type
07:09PM 39.8711 -75.2119 86° East 168 193 700  Level FlightAware ADS-B
07:09PM 39.8709 -75.2059 92° East 168 193 1,000 2,580 Climbing FlightAware ADS-B
07:09PM 39.8701 -75.1949 95° East 175 201 1,400 1,560 Climbing FlightAware ADS-B
07:09PM 39.8677 -75.1781 101° East 199 229 1,700 1,380 Climbing FlightAware ADS-B
07:09PM 39.8658 -75.1652 101° East 210 242 2,000 2,160 Climbing FlightAware ADS-B
07:10PM 39.8625 -75.1464 103° East 219 252 2,600 2,040 Climbing FlightAware ADS-B
07:10PM 39.8582 -75.1237 104° East 240 276 3,100 1,800 Climbing FlightAware ADS-B
07:10PM 39.8539 -75.1010 104° East 256 295 3,600 2,100 Climbing FlightAware ADS-B
07:10PM 39.8493 -75.0775 104° East 270 311 4,200 3,000 Climbing FlightAware ADS-B
07:11PM 39.8422 -75.0411 104° East 271 312 5,500 3,060 Climbing FlightAware ADS-B
07:11PM 39.8376 -75.0152 103° East 282 325 6,200 2,700 Climbing FlightAware ADS-B
07:11PM 39.8325 -74.9872 103° East 287 330 7,000 3,240 Climbing FlightAware ADS-B
07:12PM 39.8273 -74.9608 104° East 286 329 8,000 3,240 Climbing FlightAware ADS-B
07:12PM 39.8222 -74.9320 103° East 290 334 8,800 2,580 Climbing FlightAware ADS-B
07:12PM 39.8175 -74.9047 103° East 303 349 9,400 2,160 Climbing FlightAware ADS-B
07:12PM 39.8134 -74.8770 101° East 314 361 9,900 1,560 Climbing FlightAware ADS-B
07:13PM 39.8026 -74.7972 100° East 356 410 10,900 1,920 Climbing FlightAware ADS-B
07:14PM 39.7900 -74.7010 100° East 384 442 12,700 2,400 Climbing FlightAware
07:14PM 39.7916 -74.6654 87° East 377 434 13,300 2,520 Climbing FlightAware ADS-B
07:14PM 39.7930 -74.6492 84° East 398 458 13,600 2,100 Climbing FlightAware ADS-B
07:15PM 39.8002 -74.5740 83° East 421 484 14,600 2,460 Climbing FlightAware ADS-B
07:15PM 39.8074 -74.4932 83° East 429 494 16,200 3,120 Climbing FlightAware ADS-B
07:15PM 39.8103 -74.4714 80° East 424 488 16,700 3,180 Climbing FlightAware ADS-B
07:16PM 39.8256 -74.3953 75° East 427 491 18,300 2,700 Climbing FlightAware ADS-B
07:16PM 39.8438 -74.3079 75° East 438 504 19,700 2,220 Climbing FlightAware ADS-B
07:17PM 39.8562 -74.2462 75° East 450 518 20,500 2,040 Climbing FlightAware ADS-B
07:17PM 39.8589 -74.1768 87° East 464 534 21,400 2,040 Climbing FlightAware ADS-B
07:18PM 39.8632 -74.0778 87° East 471 542 22,600 1,260 Climbing FlightAware ADS-B
07:18PM 39.8697 -73.9720 85° East 480 552 23,000 300 Climbing FlightAware ADS-B
07:19PM 39.8784 -73.8789 83° East 471 542 23,000  Level FlightAware ADS-B
07:19PM 39.8889 -73.8297 74° East 464 534 23,000  Level FlightAware ADS-B
07:20PM 39.9035 -73.7813 69° East 458 527 23,000 720 Level FlightAware ADS-B
07:20PM 39.9341 -73.7027 63° Northeast 459 528 23,600 1,740 Climbing FlightAware ADS-B
07:21PM 39.9658 -73.6204 63° Northeast 462 532 24,900 2,160 Climbing FlightAware ADS-B
07:21PM 40.0028 -73.5248 63° Northeast 468 539 26,200 1,980 Climbing FlightAware ADS-B
07:22PM 40.0354 -73.4407 63° Northeast 473 544 27,300 1,860 Climbing FlightAware ADS-B
07:22PM 40.0659 -73.3612 63° Northeast 479 551 28,200 1,920 Climbing FlightAware ADS-B
07:23PM 40.0989 -73.2756 63° Northeast 479 551 29,400 2,100 Climbing FlightAware ADS-B
07:24PM 40.1351 -73.1818 63° Northeast 475 547 30,700 1,860 Climbing FlightAware ADS-B
07:24PM 40.1698 -73.0919 63° Northeast 479 551 31,700 1,620 Climbing FlightAware ADS-B
07:25PM 40.2005 -73.0119 63° Northeast 482 555 32,500 1,380 Climbing FlightAware ADS-B
07:25PM 40.2342 -72.9238 63° Northeast 488 562 33,200 1,320 Climbing FlightAware ADS-B
07:26PM 40.2647 -72.8437 63° Northeast 489 563 33,900 720 Climbing FlightAware ADS-B
07:26PM 40.3014 -72.7473 63° Northeast 498 573 34,000 300 Climbing FlightAware ADS-B
07:27PM 40.3342 -72.6603 64° Northeast 497 572 34,300 1,200 Climbing FlightAware ADS-B
07:27PM 40.3670 -72.5735 64° Northeast 489 563 35,300 1,740 Climbing FlightAware ADS-B
07:28PM 40.4060 -72.4703 64° Northeast 485 558 36,400 1,320 Climbing FlightAware ADS-B
07:29PM 40.4400 -72.3802 64° Northeast 484 557 37,000 480 Climbing FlightAware ADS-B
07:29PM 40.4777 -72.2794 64° Northeast 489 563 37,000  Level FlightAware ADS-B
07:30PM 40.5081 -72.1975 64° Northeast 491 565 37,000  Level FlightAware ADS-B
07:30PM 40.5450 -72.0977 64° Northeast 490 564 37,000  Level FlightAware ADS-B
07:31PM 40.5748 -72.0173 64° Northeast 485 558 37,000  Level FlightAware ADS-B
07:31PM 40.6044 -71.9363 64° Northeast 483 556 37,000  Level FlightAware ADS-B
07:32PM 40.6348 -71.8535 64° Northeast 481 554 37,000  Level FlightAware ADS-B
07:33PM 40.6699 -71.7572 64° Northeast 480 552 37,000  Level FlightAware ADS-B
07:33PM 40.7076 -71.6534 64° Northeast 480 552 37,000  Level FlightAware ADS-B
07:34PM 40.7330 -71.5820 65° Northeast 477 549 37,000  Level FlightAware
07:34PM 40.7710 -71.4770 64° Northeast 476 548 37,000  Level FlightAware
07:35PM 40.8150 -71.3560 64° Northeast 474 545 37,000  Level FlightAware
07:36PM 40.8520 -71.2500 65° Northeast 473 544 37,000  Level FlightAware
07:37PM 40.8940 -71.1350 64° Northeast 474 545 37,000  Level FlightAware
07:37PM 40.9220 -71.0550 65° Northeast 470 541 37,000  Level FlightAware
07:38PM 40.9640 -70.9380 65° Northeast 471 542 37,000  Level FlightAware
07:39PM 41.0060 -70.8160 65° Northeast 471 542 37,000  Level FlightAware
07:39PM 41.0440 -70.7090 65° Northeast 471 542 37,000  Level FlightAware
07:40PM 41.0850 -70.5920 65° Northeast 474 545 37,000  Level FlightAware
07:41PM 41.1210 -70.4890 65° Northeast 471 542 37,000  Level FlightAware
07:42PM 41.1700 -70.3490 65° Northeast 473 544 37,000  Level FlightAware
07:43PM 41.2230 -70.1970 65° Northeast 471 542 37,000  Level FlightAware
07:43PM 41.2620 -70.0820 66° East 470 541 37,000  Level FlightAware
07:44PM 41.2960 -69.9970 62° Northeast 463 533 37,000  Level FlightAware
07:45PM 41.3370 -69.8950 62° Northeast 463 533 37,000  Level FlightAware
07:45PM 41.4000 -69.7720 56° Northeast 460 529 37,000  Level FlightAware
07:46PM 41.4430 -69.6810 58° Northeast 459 528 37,000  Level FlightAware
07:47PM 41.4860 -69.5880 58° Northeast 456 525 37,000  Level FlightAware
07:47PM 41.5350 -69.4810 59° Northeast 451 519 37,000  Level FlightAware
07:48PM 41.5940 -69.3520 59° Northeast 447 514 37,000  Level FlightAware
07:49PM 41.6300 -69.2710 59° Northeast 447 514 37,000  Level FlightAware
07:50PM 41.6870 -69.1480 58° Northeast 444 511 37,000  Level FlightAware
07:51PM 41.7380 -69.0350 59° Northeast 443 510 37,000  Level FlightAware
07:51PM 41.7770 -68.9480 59° Northeast 443 510 37,000  Level FlightAware
07:52PM 41.8190 -68.8560 58° Northeast 444 511 37,000  Level FlightAware
07:53PM 41.8980 -68.6800 59° Northeast 447 514 37,000  Level FlightAware
07:54PM 41.9780 -68.5020 59° Northeast 448 516 37,000  Level FlightAware
07:55PM 42.0520 -68.3360 59° Northeast 449 517 37,000  Level FlightAware
07:57PM 42.1340 -68.1510 59° Northeast 451 519 37,000  Level FlightAware
07:58PM 42.2160 -67.9630 59° Northeast 452 520 37,000  Level FlightAware
07:59PM 42.2630 -67.8560 59° Northeast 453 521 37,000  Level FlightAware
07:59PM 42.3000 -67.7710 60° Northeast 453 521 37,000  Level FlightAware
08:00PM 42.3430 -67.6710 60° Northeast 453 521 37,000  Level FlightAware
08:01PM 42.3780 -67.5880 60° Northeast 453 521 37,000  Level FlightAware
08:01PM 42.4140 -67.5040 60° Northeast 453 521 37,000  Level FlightAware
08:02PM 42.4580 -67.4000 60° Northeast 453 521 37,000  Level FlightAware
08:03PM 42.4940 -67.3160 60° Northeast 453 521 37,000  Level FlightAware
08:04PM 42.5300 -67.2320 60° Northeast 453 521 37,000  Level FlightAware
08:04PM 42.5650 -67.1480 60° Northeast 453 521 37,000  Level FlightAware
08:05PM 42.6010 -67.0650 59° Northeast 453 521 37,000  Level FlightAware
08:06PM 42.6450 -66.9600 60° Northeast 453 521 37,000  Level FlightAware
08:06PM 42.6810 -66.8760 60° Northeast 453 521 37,000  Level FlightAware
08:07PM 42.7590 -66.5360 73° East 479 551 37,000  Level FlightAware
08:08PM 42.7890 -66.4240 70° East 479 551 37,000  Level FlightAware
08:09PM 42.8250 -66.2940 69° East 484 557 37,000  Level FlightAware
08:09PM 42.8560 -66.1770 70° East 484 557 37,000  Level FlightAware
08:10PM 42.8860 -66.0640 70° East 484 557 37,000  Level FlightAware
08:11PM 42.9210 -65.9330 70° East 485 558 37,000  Level FlightAware
08:12PM 42.9870 -65.6870 70° East 485 558 37,000  Level FlightAware
08:13PM 43.0400 -65.4840 70° East 486 559 37,000  Level FlightAware
08:15PM 43.0970 -65.2670 70° East 488 562 37,000  Level FlightAware
08:16PM 43.1510 -65.0630 70° East 490 564 37,000  Level FlightAware
08:17PM 43.2000 -64.8730 70° East 492 566 37,000  Level FlightAware
08:18PM 43.2600 -64.6390 71° East 493 567 37,000  Level FlightAware
08:19PM 43.3180 -64.4110 71° East 493 567 37,000  Level FlightAware
08:20PM 43.3500 -64.2880 70° East 493 567 37,000  Level FlightAware
08:21PM 43.3770 -64.1880 70° East 493 567 37,000  Level FlightAware
08:22PM 43.4030 -64.0880 70° East 493 567 37,000  Level FlightAware
08:22PM 43.4300 -63.9880 70° East 493 567 37,000  Level FlightAware
08:23PM 43.4560 -63.8870 70° East 493 567 37,000  Level FlightAware
08:24PM 43.4890 -63.7620 70° East 493 567 37,000  Level FlightAware
08:24PM 43.5160 -63.6610 70° East 493 567 37,000  Level FlightAware
08:25PM 43.5420 -63.5610 70° East 493 567 37,000  Level FlightAware
08:26PM 43.5690 -63.4600 70° East 493 567 37,000  Level FlightAware
08:26PM 43.5950 -63.3590 70° East 493 567 37,000  Level FlightAware
08:27PM 43.6220 -63.2590 70° East 493 567 37,000  Level FlightAware
08:28PM 43.6550 -63.1330 70° East 493 567 37,000  Level FlightAware
08:29PM 43.6810 -63.0320 70° East 493 567 37,000  Level FlightAware
08:29PM 43.7080 -62.9310 70° East 493 567 37,000  Level FlightAware
08:30PM 43.7667 -62.5333 70° East 470 541 37,000  Level Gander Center
08:31PM 43.8000 -62.3500 76° East 480 552 37,000  Level Gander Center
08:32PM 43.8333 -62.1667 76° East 480 552 37,000  Level Gander Center
08:33PM 43.8833 -62.0000 67° East 480 552 37,000  Level Gander Center
08:34PM 43.9333 -61.7667 73° East 480 552 37,000  Level Moncton Center
08:35PM 43.9667 -61.6167 73° East 480 552 37,000  Level Moncton Center
08:36PM 44.0167 -61.4167 71° East 490 564 37,000  Level Moncton Center
08:42PM 44.2500 -60.3720 71° East 493 567 37,000  Level FlightAware
08:43PM 44.2820 -60.2180 74° East 494 568 37,000  Level FlightAware
08:44PM 44.3060 -60.1000 74° East 494 568 37,000  Level FlightAware
08:44PM 44.3360 -59.9560 74° East 494 568 37,000  Level FlightAware
08:45PM 44.3610 -59.8320 74° East 494 568 37,000  Level FlightAware
08:46PM 44.3860 -59.7090 74° East 493 567 37,000  Level FlightAware
08:47PM 44.4130 -59.5760 74° East 492 566 37,000  Level FlightAware
08:47PM 44.4370 -59.4540 75° East 492 566 37,000  Level FlightAware
08:48PM 44.4660 -59.3120 74° East 491 565 37,000  Level FlightAware
08:49PM 44.4900 -59.1890 75° East 490 564 37,000  Level FlightAware
08:49PM 44.5170 -59.0540 74° East 491 565 37,000  Level FlightAware
08:50PM 44.5400 -58.9320 75° East 491 565 37,000  Level FlightAware
08:51PM 44.5640 -58.8100 75° East 491 565 37,000  Level FlightAware
08:51PM 44.5910 -58.6680 75° East 490 564 37,000  Level FlightAware
08:52PM 44.6150 -58.5450 75° East 489 563 37,000  Level FlightAware
08:53PM 44.6370 -58.4280 75° East 490 564 37,000  Level FlightAware
08:54PM 44.6650 -58.2850 75° East 490 564 37,000  Level FlightAware
08:54PM 44.6880 -58.1620 75° East 489 563 37,000  Level FlightAware
08:55PM 44.7120 -58.0290 76° East 487 560 37,000  Level FlightAware
08:56PM 44.7350 -57.9050 75° East 487 560 37,000  Level FlightAware
08:56PM 44.7570 -57.7880 75° East 487 560 37,000  Level FlightAware
08:57PM 44.7800 -57.6620 76° East 486 559 37,000  Level FlightAware
08:58PM 44.8060 -57.5210 75° East 486 559 37,000  Level FlightAware
08:58PM 44.8270 -57.4030 76° East 487 560 37,000  Level FlightAware
08:59PM 44.8530 -57.2600 76° East 487 560 37,000  Level FlightAware
09:00PM 44.8730 -57.1450 76° East 488 562 37,000  Level FlightAware
09:01PM 44.8990 -57.0020 76° East 489 563 37,000  Level FlightAware
09:01PM 44.9180 -56.8950 76° East 489 563 37,000  Level FlightAware
09:02PM 44.9420 -56.7550 76° East 491 565 37,000  Level FlightAware
09:03PM 44.9630 -56.6320 76° East 490 564 37,000  Level FlightAware
09:03PM 44.9850 -56.5070 76° East 490 564 37,000  Level FlightAware
09:04PM 45.0040 -56.4010 76° East 490 564 37,000  Level FlightAware
09:05PM 45.0230 -56.2960 76° East 490 564 37,000  Level FlightAware
09:05PM 45.0410 -56.1900 76° East 490 564 37,000  Level FlightAware
09:06PM 45.0640 -56.0570 76° East 490 564 37,000  Level FlightAware
09:07PM 45.0830 -55.9520 76° East 490 564 37,000  Level FlightAware
09:07PM 45.1020 -55.8460 76° East 490 564 37,000  Level FlightAware
09:08PM 45.1200 -55.7400 76° East 490 564 37,000  Level FlightAware
09:09PM 45.1390 -55.6340 76° East 490 564 37,000  Level FlightAware
09:10PM 45.1620 -55.5010 76° East 490 564 37,000  Level FlightAware
09:10PM 45.1810 -55.3950 76° East 490 564 37,000  Level FlightAware
09:11PM 45.2000 -55.2890 76° East 490 564 37,000  Level FlightAware
09:12PM 45.2720 -54.9040 75° East 482 555 37,000  Level FlightAware
09:13PM 45.2900 -54.7990 76° East 482 555 37,000  Level FlightAware
09:13PM 45.3090 -54.6950 75° East 482 555 37,000  Level FlightAware
09:14PM 45.3270 -54.5900 76° East 482 555 37,000  Level FlightAware
09:15PM 45.3590 -54.3820 78° East 483 556 37,000  Level FlightAware
09:15PM 45.3820 -54.2460 76° East 483 556 37,000  Level FlightAware
09:16PM 45.4150 -54.0890 73° East 480 552 37,000  Level FlightAware
09:17PM 45.4380 -53.9870 72° East 480 552 37,000  Level FlightAware
09:18PM 45.4760 -53.8330 71° East 478 550 37,000  Level FlightAware
09:18PM 45.5010 -53.7320 71° East 478 550 37,000  Level FlightAware
09:19PM 45.5250 -53.6300 71° East 478 550 37,000 720 Level FlightAware
09:20PM 45.5660 -53.4560 71° East 480 552 38,100 900 Climbing FlightAware
09:21PM 45.5940 -53.3450 70° East 481 554 38,300 120 Climbing FlightAware
09:21PM 45.6200 -53.2430 70° East 481 554 38,300  Level FlightAware
09:22PM 45.6460 -53.1420 70° East 481 554 38,300  Level FlightAware
09:23PM 45.6710 -53.0400 71° East 481 554 38,300  Level FlightAware
09:23PM 45.7040 -52.9130 70° East 481 554 38,300  Level FlightAware
09:24PM 45.7300 -52.8110 70° East 481 554 38,300  Level FlightAware
09:25PM 45.7560 -52.7090 70° East 481 554 38,300  Level FlightAware
09:25PM 45.7810 -52.6070 71° East 481 554 38,300  Level FlightAware
09:26PM 45.8070 -52.5050 70° East 481 554 38,300  Level FlightAware
09:27PM 45.8400 -52.3770 70° East 481 554 38,300  Level FlightAware
09:28PM 45.8650 -52.2750 71° East 481 554 38,300  Level FlightAware
09:28PM 45.8910 -52.1730 70° East 481 554 38,300  Level FlightAware
09:29PM 45.9170 -52.0710 70° East 481 554 38,300  Level FlightAware
09:30PM 45.9500 -51.9430 70° East 481 554 38,300 1,380 Level FlightAware
09:30PM 45.8333 -51.4667 70° East 490 564 40,000 1,080 Climbing Gander Center
09:31PM 45.8667 -51.2333 78° East 490 564 40,000  Level Moncton Center
09:32PM 45.8833 -51.1000 80° East 490 564 40,000  Level Gander Center
09:34PM 45.8641 -50.8198 76° East  Level FlightAware Approximate
09:41PM 46.1170 -49.5154 70° East  Level FlightAware Approximate
09:42PM 46.1622 -49.3323 70° East  Level FlightAware Approximate
09:42PM 46.0000 -50.0000 70° East 491 565 40,000  Level ETMS Enhanced Traffic Management System
09:43PM 46.2081 -49.1444 70° East  Level FlightAware Approximate
09:44PM 46.2537 -48.9561 71° East  Level FlightAware Approximate
09:45PM 46.2991 -48.7675 71° East  Level FlightAware Approximate
09:46PM 46.3441 -48.5787 71° East  Level FlightAware Approximate
09:47PM 46.3888 -48.3895 71° East  Level FlightAware Approximate
09:48PM 46.4512 -48.1368 71° East 491 565 40,000  Level FlightAware Transoceanic
09:49PM 46.4947 -47.9489 72° East 491 565 40,000  Level FlightAware Transoceanic
09:50PM 46.5378 -47.7606 72° East 491 565 40,000  Level FlightAware Transoceanic
09:51PM 46.5807 -47.5720 72° East 491 565 40,000  Level FlightAware Transoceanic
09:52PM 46.6232 -47.3831 72° East 491 565 40,000  Level FlightAware Transoceanic
09:53PM 46.6654 -47.1939 72° East 491 565 40,000  Level FlightAware Transoceanic
09:54PM 46.7073 -47.0045 72° East 491 565 40,000  Level FlightAware Transoceanic
09:55PM 46.7489 -46.8147 72° East 491 565 40,000  Level FlightAware Transoceanic
09:56PM 46.7902 -46.6246 72° East 491 565 40,000  Level FlightAware Transoceanic
09:57PM 46.8311 -46.4343 73° East 491 565 40,000  Level FlightAware Transoceanic
09:58PM 46.8717 -46.2436 73° East 491 565 40,000  Level FlightAware Transoceanic
09:59PM 46.9121 -46.0527 73° East 491 565 40,000  Level FlightAware Transoceanic
10:00PM 46.9521 -45.8615 73° East 491 565 40,000  Level FlightAware Transoceanic
10:01PM 46.9918 -45.6700 73° East 491 565 40,000  Level FlightAware Transoceanic
10:02PM 47.0311 -45.4782 73° East 491 565 40,000  Level FlightAware Transoceanic
10:03PM 47.0702 -45.2862 73° East 491 565 40,000  Level FlightAware Transoceanic
10:04PM 47.1089 -45.0938 74° East 491 565 40,000  Level FlightAware Transoceanic
10:05PM 47.1473 -44.9012 74° East 491 565 40,000  Level FlightAware Transoceanic
10:06PM 47.1854 -44.7083 74° East 491 565 40,000  Level FlightAware Transoceanic
10:07PM 47.2231 -44.5151 74° East 491 565 40,000  Level FlightAware Transoceanic
10:08PM 47.2606 -44.3217 74° East 491 565 40,000  Level FlightAware Transoceanic
10:09PM 47.2977 -44.1280 74° East 491 565 40,000  Level FlightAware Transoceanic
10:10PM 47.3344 -43.9340 74° East 491 565 40,000  Level FlightAware Transoceanic
10:11PM 47.3709 -43.7397 75° East 491 565 40,000  Level FlightAware Transoceanic
10:12PM 47.4070 -43.5452 75° East 491 565 40,000  Level FlightAware Transoceanic
10:13PM 47.4428 -43.3504 75° East 491 565 40,000  Level FlightAware Transoceanic
10:14PM 47.4783 -43.1553 75° East 491 565 40,000  Level FlightAware Transoceanic
10:15PM 47.5134 -42.9600 75° East 491 565 40,000  Level FlightAware Transoceanic
10:16PM 47.5482 -42.7644 75° East 491 565 40,000  Level FlightAware Transoceanic
10:17PM 47.5826 -42.5686 75° East 491 565 40,000  Level FlightAware Transoceanic
10:18PM 47.6168 -42.3725 76° East 491 565 40,000  Level FlightAware Transoceanic
10:19PM 47.6506 -42.1761 76° East 491 565 40,000  Level FlightAware Transoceanic
10:20PM 47.6840 -41.9795 76° East 491 565 40,000  Level FlightAware Transoceanic
10:21PM 47.7172 -41.7827 76° East 491 565 40,000  Level FlightAware Transoceanic
10:22PM 47.7499 -41.5856 76° East 491 565 40,000  Level FlightAware Transoceanic
10:23PM 47.7824 -41.3882 76° East 491 565 40,000  Level FlightAware Transoceanic
10:24PM 47.8145 -41.1906 76° East 491 565 40,000  Level FlightAware Transoceanic
10:25PM 47.8463 -40.9928 77° East 491 565 40,000  Level FlightAware Transoceanic
10:26PM 47.8777 -40.7947 77° East 491 565 40,000  Level FlightAware Transoceanic
10:27PM 47.9088 -40.5964 77° East 491 565 40,000  Level FlightAware Transoceanic
10:28PM 47.9395 -40.3978 77° East 491 565 40,000  Level FlightAware Transoceanic
10:29PM 47.9699 -40.1990 77° East 491 565 40,000  Level FlightAware Transoceanic
10:30PM 48.0003 -39.9979 77° East  Level FlightAware Approximate
10:31PM 48.0010 -39.9960 69° East  Level FlightAware Approximate
10:32PM 48.0496 -39.8029 69° East  Level FlightAware Approximate
10:33PM 48.0979 -39.6094 69° East  Level FlightAware Approximate
10:34PM 48.1458 -39.4156 70° East  Level FlightAware Approximate
10:35PM 48.1934 -39.2214 70° East  Level FlightAware Approximate
10:35PM 48.0000 -40.0000 69° East 513 590 40,000  Level ETMS Enhanced Traffic Management System
10:36PM 48.2407 -39.0268 70° East  Level FlightAware Approximate
10:37PM 48.2876 -38.8319 70° East  Level FlightAware Approximate
10:38PM 48.3343 -38.6366 70° East  Level FlightAware Approximate
10:39PM 48.3806 -38.4410 70° East  Level FlightAware Approximate
10:40PM 48.4265 -38.2450 70° East  Level FlightAware Approximate
10:41PM 48.5336 -37.7812 71° East 513 590 40,000  Level FlightAware Transoceanic
10:42PM 48.5800 -37.5772 71° East 513 590 40,000  Level FlightAware Transoceanic
10:43PM 48.6260 -37.3728 71° East 513 590 40,000  Level FlightAware Transoceanic
10:44PM 48.6717 -37.1681 71° East 513 590 40,000  Level FlightAware Transoceanic
10:45PM 48.7170 -36.9630 72° East 513 590 40,000  Level FlightAware Transoceanic
10:46PM 48.7619 -36.7575 72° East 513 590 40,000  Level FlightAware Transoceanic
10:47PM 48.8065 -36.5517 72° East 513 590 40,000  Level FlightAware Transoceanic
10:48PM 48.8507 -36.3454 72° East 513 590 40,000  Level FlightAware Transoceanic
10:49PM 48.8945 -36.1389 72° East 513 590 40,000  Level FlightAware Transoceanic
10:50PM 48.9380 -35.9319 72° East 513 590 40,000  Level FlightAware Transoceanic
10:51PM 48.9811 -35.7247 73° East 513 590 40,000  Level FlightAware Transoceanic
10:52PM 49.0238 -35.5170 73° East 513 590 40,000  Level FlightAware Transoceanic
10:53PM 49.0661 -35.3090 73° East 513 590 40,000  Level FlightAware Transoceanic
10:54PM 49.1081 -35.1007 73° East 513 590 40,000  Level FlightAware Transoceanic
10:55PM 49.1497 -34.8919 73° East 513 590 40,000  Level FlightAware Transoceanic
10:56PM 49.1909 -34.6829 73° East 513 590 40,000  Level FlightAware Transoceanic
10:57PM 49.2317 -34.4735 73° East 513 590 40,000  Level FlightAware Transoceanic
10:58PM 49.2722 -34.2637 74° East 513 590 40,000  Level FlightAware Transoceanic
10:59PM 49.3123 -34.0537 74° East 513 590 40,000  Level FlightAware Transoceanic
11:00PM 49.3520 -33.8432 74° East 513 590 40,000  Level FlightAware Transoceanic
11:01PM 49.3913 -33.6325 74° East 513 590 40,000  Level FlightAware Transoceanic
11:02PM 49.4302 -33.4214 74° East 513 590 40,000  Level FlightAware Transoceanic
11:03PM 49.4688 -33.2099 74° East 513 590 40,000  Level FlightAware Transoceanic
11:04PM 49.5069 -32.9981 75° East 513 590 40,000  Level FlightAware Transoceanic
11:05PM 49.5447 -32.7860 75° East 513 590 40,000  Level FlightAware Transoceanic
11:06PM 49.5821 -32.5736 75° East 513 590 40,000  Level FlightAware Transoceanic
11:07PM 49.6191 -32.3609 75° East 513 590 40,000  Level FlightAware Transoceanic
11:08PM 49.6557 -32.1478 75° East 513 590 40,000  Level FlightAware Transoceanic
11:09PM 49.6919 -31.9344 75° East 513 590 40,000  Level FlightAware Transoceanic
11:10PM 49.7277 -31.7207 76° East 513 590 40,000  Level FlightAware Transoceanic
11:11PM 49.7631 -31.5067 76° East 513 590 40,000  Level FlightAware Transoceanic
11:12PM 49.7982 -31.2924 76° East 513 590 40,000  Level FlightAware Transoceanic
11:13PM 49.8328 -31.0777 76° East 513 590 40,000  Level FlightAware Transoceanic
11:14PM 49.8670 -30.8628 76° East 513 590 40,000  Level FlightAware Transoceanic
11:15PM 49.9009 -30.6475 76° East 513 590 40,000  Level FlightAware Transoceanic
11:16PM 49.9343 -30.4320 77° East 513 590 40,000  Level FlightAware Transoceanic
11:17PM 49.9674 -30.2161 77° East 513 590 40,000  Level FlightAware Transoceanic
11:18PM 49.9989 -30.0072 77° East  Level FlightAware Approximate
11:19PM 50.0300 -29.7980 77° East  Level FlightAware Approximate
11:20PM 50.0282 -29.8050 77° East  Level FlightAware Approximate
11:21PM 50.0582 -29.5953 77° East  Level FlightAware Approximate
11:21PM 50.0000 -30.0000 77° East 526 605 40,000  Level ETMS Enhanced Traffic Management System
11:22PM 50.0878 -29.3853 78° East  Level FlightAware Approximate
11:23PM 50.1170 -29.1755 78° East  Level FlightAware Approximate
11:24PM 50.1457 -28.9655 78° East  Level FlightAware Approximate
11:25PM 50.1741 -28.7552 78° East  Level FlightAware Approximate
11:26PM 50.2021 -28.5447 78° East  Level FlightAware Approximate
11:27PM 50.2450 -28.2159 79° East 526 605 40,000  Level FlightAware Transoceanic
11:28PM 50.2737 -27.9917 79° East 526 605 40,000  Level FlightAware Transoceanic
11:29PM 50.3020 -27.7671 79° East 526 605 40,000  Level FlightAware Transoceanic
11:30PM 50.3298 -27.5423 79° East 526 605 40,000  Level FlightAware Transoceanic
11:31PM 50.3572 -27.3173 79° East 526 605 40,000  Level FlightAware Transoceanic
11:32PM 50.3842 -27.0919 79° East 526 605 40,000  Level FlightAware Transoceanic
11:33PM 50.4107 -26.8664 80° East 526 605 40,000  Level FlightAware Transoceanic
11:34PM 50.4368 -26.6406 80° East 526 605 40,000  Level FlightAware Transoceanic
11:35PM 50.4625 -26.4145 80° East 526 605 40,000  Level FlightAware Transoceanic
11:36PM 50.4877 -26.1882 80° East 526 605 40,000  Level FlightAware Transoceanic
11:37PM 50.5125 -25.9616 80° East 526 605 40,000  Level FlightAware Transoceanic
11:38PM 50.5368 -25.7348 81° East 526 605 40,000  Level FlightAware Transoceanic
11:39PM 50.5607 -25.5078 81° East 526 605 40,000  Level FlightAware Transoceanic
11:40PM 50.5841 -25.2805 81° East 526 605 40,000  Level FlightAware Transoceanic
11:41PM 50.6072 -25.0531 81° East 526 605 40,000  Level FlightAware Transoceanic
11:42PM 50.6297 -24.8254 81° East 526 605 40,000  Level FlightAware Transoceanic
11:43PM 50.6519 -24.5975 81° East 526 605 40,000  Level FlightAware Transoceanic
11:44PM 50.6735 -24.3693 82° East 526 605 40,000  Level FlightAware Transoceanic
11:45PM 50.6948 -24.1410 82° East 526 605 40,000  Level FlightAware Transoceanic
11:46PM 50.7156 -23.9125 82° East 526 605 40,000  Level FlightAware Transoceanic
11:47PM 50.7359 -23.6837 82° East 526 605 40,000  Level FlightAware Transoceanic
11:48PM 50.7558 -23.4548 82° East 526 605 40,000  Level FlightAware Transoceanic
11:49PM 50.7752 -23.2257 82° East 526 605 40,000  Level FlightAware Transoceanic
11:50PM 50.7942 -22.9963 83° East 526 605 40,000  Level FlightAware Transoceanic
11:51PM 50.8128 -22.7668 83° East 526 605 40,000  Level FlightAware Transoceanic
11:52PM 50.8309 -22.5372 83° East 526 605 40,000  Level FlightAware Transoceanic
11:53PM 50.8485 -22.3073 83° East 526 605 40,000  Level FlightAware Transoceanic
11:54PM 50.8657 -22.0773 83° East 526 605 40,000  Level FlightAware Transoceanic
11:55PM 50.8824 -21.8471 84° East 526 605 40,000  Level FlightAware Transoceanic
11:56PM 50.8987 -21.6167 84° East 526 605 40,000  Level FlightAware Transoceanic
11:57PM 50.9146 -21.3862 84° East 526 605 40,000  Level FlightAware Transoceanic
11:58PM 50.9299 -21.1555 84° East 526 605 40,000  Level FlightAware Transoceanic
11:59PM 50.9449 -20.9247 84° East 526 605 40,000  Level FlightAware Transoceanic
12:00AM 50.9593 -20.6937 84° East 526 605 40,000  Level FlightAware Transoceanic
12:01AM 50.9733 -20.4626 85° East 526 605 40,000  Level FlightAware Transoceanic
12:02AM 50.9869 -20.2314 85° East 526 605 40,000 -60 Level FlightAware Transoceanic
12:03AM 50.9992 -20.0135 85° East  Level FlightAware Approximate
12:04AM 51.0111 -19.7956 85° East  Level FlightAware Approximate
12:05AM 50.9863 -19.8097 96° East  Level FlightAware Approximate
12:06AM 50.9702 -19.5920 97° East  Level FlightAware Approximate
12:07AM 50.9538 -19.3745 97° East  Level FlightAware Approximate
12:08AM 50.9369 -19.1571 97° East  Level FlightAware Approximate
12:09AM 50.9196 -18.9399 97° East  Level FlightAware Approximate
12:10AM 50.9020 -18.7229 97° East  Level FlightAware Approximate
12:11AM 50.8839 -18.5060 97° East  Level FlightAware Approximate
12:12AM 50.8654 -18.2893 98° East  Level FlightAware Approximate
12:13AM 50.8465 -18.0728 98° East  Level FlightAware Approximate
12:14AM 50.8272 -17.8564 98° East  Level FlightAware Approximate
12:15AM 50.8075 -17.6402 98° East  Level FlightAware Approximate
12:16AM 50.7875 -17.4242 98° East  Level FlightAware Approximate
12:17AM 50.7670 -17.2084 98° East  Level FlightAware Approximate
12:18AM 50.7461 -16.9928 99° East  Level FlightAware Approximate
12:19AM 50.7248 -16.7774 99° East  Level FlightAware Approximate
12:20AM 50.7032 -16.5622 99° East  Level FlightAware Approximate
12:21AM 50.6811 -16.3472 99° East  Level FlightAware Approximate
12:22AM 50.6586 -16.1323 99° East  Level FlightAware Approximate
12:23AM 50.6358 -15.9177 99° East  Level FlightAware Approximate
12:24AM 50.6125 -15.7033 100° East  Level FlightAware Approximate
12:25AM 50.5889 -15.4891 100° East  Level FlightAware Approximate
12:26AM 50.5648 -15.2752 100° East  Level FlightAware Approximate
12:27AM 50.5404 -15.0614 100° East  Level FlightAware Approximate
12:28AM 50.5132 -14.8486 102° East  Level FlightAware Approximate
12:29AM 50.4864 -14.6358 101° East  Level FlightAware Approximate
12:30AM 50.4607 -14.4228 101° East  Level FlightAware Approximate
12:31AM 50.4346 -14.2100 101° East  Level FlightAware Approximate
12:32AM 50.4082 -13.9974 101° East  Level FlightAware Approximate
12:33AM 50.3813 -13.7851 101° East  Level FlightAware Approximate
12:34AM 50.3541 -13.5730 101° East  Level FlightAware Approximate
12:35AM 50.3264 -13.3612 101° East  Level FlightAware Approximate
12:36AM 50.2984 -13.1496 102° East  Level FlightAware Approximate
12:37AM 50.2700 -12.9383 102° East  Level FlightAware Approximate
12:38AM 50.2413 -12.7272 102° East  Level FlightAware Approximate
12:39AM 50.2121 -12.5164 102° East  Level FlightAware Approximate
12:40AM 50.1826 -12.3059 102° East  Level FlightAware Approximate
12:41AM 50.1526 -12.0955 102° East  Level FlightAware Approximate
12:42AM 50.1223 -11.8855 103° East  Level FlightAware Approximate
12:43AM 50.0917 -11.6757 103° East  Level FlightAware Approximate
12:44AM 50.0606 -11.4662 103° East  Level FlightAware Approximate
12:45AM 50.0292 -11.2570 103° East  Level FlightAware Approximate
12:46AM 49.9974 -11.0481 103° East  Level FlightAware Approximate
12:47AM 49.9652 -10.8394 103° East  Level FlightAware Approximate
12:48AM 49.9326 -10.6310 104° East  Level FlightAware Approximate
12:49AM 49.8997 -10.4229 104° East  Level FlightAware Approximate
12:50AM 49.8664 -10.2151 103° East  Level FlightAware Approximate
12:51AM 49.8340 -10.0070 103° East  Level FlightAware Approximate
12:51AM 49.7563 -9.0086 103° East 460 529 38,500  Level FlightAware UK
12:51AM 49.7413 -8.9475 111° Southeast 460 529 38,500  Level FlightAware UK
12:51AM 49.7262 -8.8864 111° Southeast 458 527 38,500  Level FlightAware UK
12:52AM 49.7110 -8.8251 111° Southeast 458 527 38,500  Level FlightAware UK
12:52AM 49.6958 -8.7640 111° Southeast 458 527 38,500  Level FlightAware UK
12:52AM 49.6806 -8.7029 111° Southeast 456 525 38,500  Level FlightAware UK
12:53AM 49.6653 -8.6418 111° Southeast 456 525 38,500  Level FlightAware UK
12:53AM 49.6498 -8.5808 111° Southeast 456 525 38,500  Level FlightAware UK
12:53AM 49.6344 -8.5199 111° Southeast 456 525 38,500  Level FlightAware UK
12:53AM 49.6188 -8.4589 111° Southeast 454 522 38,500  Level FlightAware UK
12:54AM 49.6032 -8.3979 111° Southeast 456 525 38,500  Level FlightAware UK
12:54AM 49.5877 -8.3368 111° Southeast 456 525 38,500  Level FlightAware UK
12:54AM 49.5723 -8.2756 111° Southeast 456 525 38,500  Level FlightAware UK
12:55AM 49.5568 -8.2144 111° Southeast 456 525 38,500  Level FlightAware UK
12:55AM 49.5412 -8.1532 112° Southeast 456 525 38,500  Level FlightAware UK
12:55AM 49.5255 -8.0921 111° Southeast 456 525 38,500  Level FlightAware UK
12:56AM 49.5102 -8.0299 111° Southeast 456 525 38,500 3,000 Level FlightAware UK
12:56AM 49.5130 -8.0490 111° Southeast 515 593 40,000 3,300 Climbing FlightAware
12:56AM 49.5070 -7.9810 111° Southeast 528 608 40,000 -5,040 Level FlightAware
12:56AM 49.4995 -7.9184 111° Southeast 454 522 38,500 -6,000 Descending FlightAware UK
12:56AM 49.4986 -7.8734 111° Southeast 454 522 38,500  Level FlightAware UK
12:57AM 49.4977 -7.8058 91° East 454 522 38,500 3,600 Level FlightAware UK
12:57AM 49.5020 -7.8260 91° East 530 610 40,000  Climbing FlightAware
12:57AM 49.4953 -7.7158 91° East 456 525 38,500 -2,580 Descending FlightAware UK
12:57AM 49.4936 -7.6480 92° East 456 525 38,500 3,180 Level FlightAware UK
12:57AM 49.4980 -7.6500 92° East 532 612 40,000  Climbing FlightAware
12:58AM 49.4908 -7.5351 92° East 454 522 38,500 -2,400 Descending FlightAware UK
12:58AM 49.4889 -7.4674 92° East 454 522 38,500 4,500 Level FlightAware UK
12:58AM 49.4930 -7.5000 92° East 533 613 40,000  Climbing FlightAware
12:58AM 49.4860 -7.3997 92° East 454 522 38,500 -2,700 Descending FlightAware UK
12:59AM 49.4823 -7.3317 95° East 454 522 38,500 3,060 Level FlightAware UK
12:59AM 49.4840 -7.3370 95° East 534 615 40,000  Climbing FlightAware
12:59AM 49.4759 -7.2187 95° East 456 525 38,500 -2,460 Descending FlightAware UK
12:59AM 49.4723 -7.1508 95° East 456 525 38,500 4,260 Level FlightAware UK
12:59AM 49.4760 -7.1820 95° East 535 616 40,000  Climbing FlightAware
01:00AM 49.4685 -7.0829 95° East 456 525 38,500 -2,760 Descending FlightAware UK
01:00AM 49.4649 -7.0141 95° East 456 525 38,500 3,000 Level FlightAware UK
01:00AM 49.4670 -7.0040 95° East 536 617 40,000  Climbing FlightAware
01:01AM 49.4591 -6.9007 95° East 456 525 38,500 -2,520 Descending FlightAware UK
01:01AM 49.4557 -6.8325 94° East 458 527 38,500 4,080 Level FlightAware UK
01:01AM 49.4590 -6.8510 94° East 537 618 40,000  Climbing FlightAware
01:01AM 49.4510 -6.7416 94° East 460 529 38,500 -2,400 Descending FlightAware UK
01:02AM 49.4477 -6.6734 94° East 460 529 38,500 4,500 Level FlightAware UK
01:02AM 49.4510 -6.7010 94° East 537 618 40,000  Climbing FlightAware
01:02AM 49.4443 -6.6054 94° East 462 532 38,500 -2,700 Descending FlightAware UK
01:02AM 49.4406 -6.5372 95° East 460 529 38,500  Level FlightAware UK
01:02AM 49.4369 -6.4691 95° East 460 529 38,500  Level FlightAware UK
01:03AM 49.4331 -6.4010 95° East 458 527 38,500  Level FlightAware UK
01:03AM 49.4295 -6.3329 95° East 460 529 38,500  Level FlightAware UK
01:03AM 49.4261 -6.2648 94° East 462 532 38,500  Level FlightAware UK
01:04AM 49.4223 -6.1970 95° East 462 532 38,500  Level FlightAware UK
01:04AM 49.4185 -6.1292 95° East 458 527 38,500  Level FlightAware UK
01:04AM 49.4144 -6.0608 95° East 458 527 38,500  Level FlightAware UK
01:05AM 49.4101 -5.9935 96° East 456 525 38,500  Level FlightAware UK
01:05AM 49.4059 -5.9262 96° East 458 527 38,500  Level FlightAware UK
01:05AM 49.4015 -5.8590 96° East 456 525 38,500  Level FlightAware UK
01:05AM 49.3971 -5.7919 96° East 454 522 38,500  Level FlightAware UK
01:06AM 49.3928 -5.7249 96° East 452 520 38,500  Level FlightAware UK
01:06AM 49.3886 -5.6579 95° East 454 522 38,500  Level FlightAware UK
01:06AM 49.3844 -5.5909 95° East 452 520 38,500 3,300 Level FlightAware UK
01:06AM 49.3850 -5.6040 95° East 529 609 40,000  Climbing FlightAware
01:07AM 49.3786 -5.5017 95° East 454 522 38,500 -2,760 Descending FlightAware UK
01:07AM 49.3744 -5.4349 96° East 454 522 38,500 3,600 Level FlightAware UK
01:07AM 49.3750 -5.4520 96° East 528 608 40,000  Climbing FlightAware
01:07AM 49.3687 -5.3458 96° East 454 522 38,500 -2,580 Descending FlightAware UK
01:08AM 49.3645 -5.2791 96° East 452 520 38,500 3,180 Level FlightAware UK
01:08AM 49.3640 -5.2850 96° East 527 606 40,000  Climbing FlightAware
01:08AM 49.3577 -5.1671 96° East 452 520 38,500 -2,400 Descending FlightAware UK
01:09AM 49.3534 -5.1005 96° East 452 520 38,500 4,500 Level FlightAware UK
01:09AM 49.3550 -5.1370 96° East 527 606 40,000  Climbing FlightAware
01:09AM 49.3491 -5.0338 96° East 452 520 38,500 -2,700 Descending FlightAware UK
01:09AM 49.3448 -4.9673 96° East 452 520 38,500 3,060 Level FlightAware UK
01:09AM 49.3440 -4.9780 96° East 526 605 40,000  Climbing FlightAware
01:10AM 49.3373 -4.8565 96° East 452 520 38,500 -2,460 Descending FlightAware UK
01:10AM 49.3328 -4.7900 96° East 452 520 38,500 4,260 Level FlightAware UK
01:10AM 49.3340 -4.8250 96° East 527 606 40,000  Climbing FlightAware
01:10AM 49.3281 -4.7235 96° East 452 520 38,500 -2,760 Descending FlightAware UK
01:11AM 49.3233 -4.6571 96° East 450 518 38,500 3,000 Level FlightAware UK
01:11AM 49.3220 -4.6590 96° East 527 606 40,000  Climbing FlightAware
01:11AM 49.3155 -4.5464 96° East 452 520 38,500 -2,520 Descending FlightAware UK
01:11AM 49.3104 -4.4800 97° East 450 518 38,500 4,080 Level FlightAware UK
01:11AM 49.3110 -4.5150 97° East 527 606 40,000  Climbing FlightAware
01:12AM 49.3038 -4.3912 97° East 452 520 38,500 -2,400 Descending FlightAware UK
01:12AM 49.2987 -4.3247 97° East 452 520 38,500 4,500 Level FlightAware UK
01:12AM 49.3000 -4.3660 97° East 527 606 40,000  Climbing FlightAware
01:12AM 49.2936 -4.2580 97° East 452 520 38,500 -2,700 Descending FlightAware UK
01:13AM 49.2885 -4.1914 97° East 450 518 38,500 3,060 Level FlightAware UK
01:13AM 49.2870 -4.1930 97° East 528 608 40,000  Climbing FlightAware
01:13AM 49.2803 -4.0795 97° East 452 520 38,500 -2,400 Descending FlightAware UK
01:13AM 49.2751 -4.0129 97° East 452 520 38,500 4,500 Level FlightAware UK
01:13AM 49.2760 -4.0510 97° East 528 608 40,000  Climbing FlightAware
01:14AM 49.2699 -3.9463 97° East 450 518 38,500 -2,700 Descending FlightAware UK
01:14AM 49.2647 -3.8798 97° East 452 520 38,500 3,060 Level FlightAware UK
01:14AM 49.2630 -3.8780 97° East 529 609 40,000  Climbing FlightAware
01:15AM 49.2560 -3.7680 97° East 452 520 38,500 -2,460 Descending FlightAware UK
01:15AM 49.2507 -3.7013 97° East 454 522 38,500 4,260 Level FlightAware UK
01:15AM 49.2510 -3.7330 97° East 528 608 40,000  Climbing FlightAware
01:15AM 49.2454 -3.6346 97° East 452 520 38,500 -2,760 Descending FlightAware UK
01:15AM 49.2402 -3.5679 97° East 452 520 38,500 3,600 Level FlightAware UK
01:16AM 49.2390 -3.5830 97° East 529 609 40,000  Climbing FlightAware
01:16AM 49.2331 -3.4790 97° East 454 522 38,500 -2,580 Descending FlightAware UK
01:16AM 49.2277 -3.4123 97° East 454 522 38,500 3,180 Level FlightAware UK
01:16AM 49.2260 -3.4130 97° East 529 609 40,000  Climbing FlightAware
01:17AM 49.2187 -3.3012 97° East 458 527 38,500  Descending FlightAware UK
01:17AM 49.2140 -3.2670 97° East 528 608 40,000  Climbing FlightAware
01:17AM 49.2077 -3.1673 97° East 454 522 38,500 -2,700 Descending FlightAware UK
01:18AM 49.2022 -3.1000 97° East 452 520 38,500 3,720 Level FlightAware UK
01:18AM 49.2020 -3.1210 97° East 529 609 40,000  Climbing FlightAware
01:18AM 49.1953 -3.0113 97° East 452 520 38,500 -2,520 Descending FlightAware UK
01:18AM 49.1895 -2.9448 98° East 454 522 38,500 3,300 Level FlightAware UK
01:18AM 49.1890 -2.9640 98° East 529 609 40,000  Climbing FlightAware
01:19AM 49.1817 -2.8561 98° East 456 525 38,500 -2,760 Descending FlightAware UK
01:19AM 49.1759 -2.7890 97° East 456 525 38,500 3,600 Level FlightAware UK
01:19AM 49.1750 -2.8020 97° East 529 609 40,000  Climbing FlightAware
01:19AM 49.1681 -2.7011 97° East 454 522 38,500 -2,580 Descending FlightAware UK
01:20AM 49.1618 -2.6339 98° East 452 520 38,500 3,180 Level FlightAware UK
01:20AM 49.1620 -2.6540 98° East 529 609 40,000  Climbing FlightAware
01:20AM 49.1519 -2.5230 98° East 452 520 38,500 -2,400 Descending FlightAware UK
01:20AM 49.1457 -2.4565 98° East 452 520 38,500 4,500 Level FlightAware UK
01:20AM 49.1470 -2.4920 98° East 530 610 40,000  Climbing FlightAware
01:21AM 49.1393 -2.3895 98° East 452 520 38,500 -2,580 Descending FlightAware UK
01:21AM 49.1328 -2.3231 98° East 450 518 38,500 3,180 Level FlightAware UK
01:21AM 49.1300 -2.3130 98° East 530 610 40,000  Climbing FlightAware
01:22AM 49.1219 -2.2122 98° East 450 518 38,500 -2,400 Descending FlightAware UK
01:22AM 49.1153 -2.1453 99° East 452 520 38,500 4,500 Level FlightAware UK
01:22AM 49.1160 -2.1640 99° East 530 610 40,000  Climbing FlightAware
01:22AM 49.1087 -2.0776 99° East 452 520 38,500 -2,700 Descending FlightAware UK
01:22AM 49.1022 -2.0113 98° East 452 520 38,500 3,720 Level FlightAware UK
01:23AM 49.1020 -2.0150 98° East 531 611 40,000  Climbing FlightAware
01:23AM 49.0937 -1.9217 98° East 454 522 38,500 -2,520 Descending FlightAware UK
01:23AM 49.0873 -1.8545 98° East 456 525 38,500  Level FlightAware UK
01:23AM 49.0809 -1.7881 98° East 456 525 38,500  Level FlightAware UK
01:24AM 49.0746 -1.7217 98° East 458 527 38,500  Level FlightAware UK
01:24AM 49.0664 -1.6330 98° East 458 527 38,500 2,340 Level FlightAware UK
01:24AM 49.0650 -1.6300 98° East 528 608 40,000  Climbing FlightAware
01:25AM 49.0559 -1.5225 98° East 458 527 38,500 -2,700 Descending FlightAware UK
01:25AM 49.0495 -1.4565 98° East 458 527 38,500 3,060 Level FlightAware UK
01:25AM 49.0490 -1.4570 98° East 526 605 40,000  Climbing FlightAware
01:25AM 49.0387 -1.3473 98° East 456 525 38,500 -2,460 Descending FlightAware UK
01:26AM 49.0320 -1.2800 99° East 456 525 38,500 4,260 Level FlightAware UK
01:26AM 49.0350 -1.3090 99° East 525 604 40,000  Climbing FlightAware
01:26AM 49.0254 -1.2142 99° East 454 522 38,500 -2,760 Descending FlightAware UK
01:26AM 49.0188 -1.1491 99° East 452 520 38,500 3,000 Level FlightAware UK
01:27AM 49.0190 -1.1470 99° East 526 605 40,000  Climbing FlightAware
01:27AM 49.0077 -1.0393 99° East 454 522 38,500 -2,520 Descending FlightAware UK
01:27AM 49.0010 -0.9726 99° East 454 522 38,500 4,080 Level FlightAware UK
01:27AM 49.0040 -0.9980 99° East 527 606 40,000  Climbing FlightAware
01:28AM 48.9918 -0.8848 99° East 454 522 38,500 -2,400 Descending FlightAware UK
01:28AM 48.9850 -0.8189 99° East 454 522 38,500 3,600 Level FlightAware UK
01:28AM 48.9880 -0.8370 99° East 527 606 40,000  Climbing FlightAware
01:28AM 48.9734 -0.7085 99° East 454 522 38,500  Descending FlightAware UK
01:29AM 48.9730 -0.6890 99° East 528 608 40,000  Climbing FlightAware
01:29AM 48.9598 -0.5767 99° East 452 520 38,500 -2,400 Descending FlightAware UK
01:29AM 48.9528 -0.5102 99° East 452 520 38,500 4,500 Level FlightAware UK
01:29AM 48.9570 -0.5420 99° East 527 606 40,000  Climbing FlightAware
01:30AM 48.9460 -0.4449 99° East 454 522 38,500 -2,280 Descending FlightAware UK
01:30AM 48.9362 -0.3564 100° East 456 525 38,500 3,060 Level FlightAware UK
01:30AM 48.9420 -0.3930 100° East 527 606 40,000  Climbing FlightAware
01:30AM 48.9264 -0.2694 100° East 456 525 38,500 -2,460 Descending FlightAware UK
01:31AM 48.9191 -0.2029 99° East 456 525 38,500 4,260 Level FlightAware UK
01:31AM 48.9240 -0.2310 99° East 526 605 40,000  Climbing FlightAware
01:31AM 48.9118 -0.1365 99° East 456 525 38,500  Descending FlightAware UK
01:31AM 48.9050 -0.0540 99° East 525 604 40,000  Climbing FlightAware
01:32AM 48.8923 0.0381 99° East 454 522 38,500 -2,520 Descending FlightAware UK
01:32AM 48.8847 0.1034 100° East 452 520 38,500 4,080 Level FlightAware UK
01:32AM 48.8900 0.0820 100° East 524 603 40,000  Climbing FlightAware
01:32AM 48.8745 0.1902 100° East 452 520 38,500 -2,400 Descending FlightAware UK
01:33AM 48.8668 0.2560 100° East 450 518 38,500 4,500 Level FlightAware UK
01:33AM 48.8740 0.2230 100° East 524 603 40,000  Climbing FlightAware
01:33AM 48.8593 0.3212 100° East 452 520 38,500 -2,700 Descending FlightAware UK
01:33AM 48.8516 0.3856 100° East 452 520 38,500 3,720 Level FlightAware UK
01:33AM 48.8560 0.3760 100° East 524 603 40,000  Climbing FlightAware
01:34AM 48.8413 0.4732 100° East 450 518 38,500 -2,520 Descending FlightAware UK
01:34AM 48.8337 0.5385 100° East 454 522 38,500 3,300 Level FlightAware UK
01:34AM 48.8370 0.5380 100° East 524 603 40,000  Climbing FlightAware
01:34AM 48.8233 0.6254 100° East 458 527 38,500 -2,760 Descending FlightAware UK
01:35AM 48.8156 0.6913 100° East 454 522 38,500 3,000 Level FlightAware UK
01:35AM 48.8190 0.7000 100° East 522 601 40,000  Climbing FlightAware
01:35AM 48.8027 0.7989 100° East 456 525 38,500 -2,460 Descending FlightAware UK
01:36AM 48.7947 0.8652 100° East 452 520 38,500 4,080 Level FlightAware UK
01:36AM 48.8030 0.8370 100° East 522 601 40,000  Climbing FlightAware
01:36AM 48.7868 0.9299 100° East 450 518 38,500 -2,760 Descending FlightAware UK
01:36AM 48.7790 0.9945 100° East 450 518 38,500 3,600 Level FlightAware UK
01:36AM 48.7840 0.9920 100° East 521 600 40,000  Climbing FlightAware
01:37AM 48.7685 1.0807 100° East 450 518 38,500 -2,580 Descending FlightAware UK
01:37AM 48.7605 1.1451 101° East 450 518 38,500 3,180 Level FlightAware UK
01:37AM 48.7650 1.1490 101° East 520 598 40,000  Climbing FlightAware
01:37AM 48.7469 1.2531 101° East 450 518 38,500  Descending FlightAware UK
01:38AM 48.7460 1.2930 101° East 520 598 40,000  Climbing FlightAware
01:38AM 48.7279 1.3802 101° East 454 522 38,500 -2,700 Descending FlightAware UK
01:38AM 48.7172 1.4446 104° East 456 525 38,500 3,720 Level FlightAware UK
01:38AM 48.7260 1.4290 104° East 521 600 40,000  Climbing FlightAware
01:39AM 48.7037 1.5297 104° East 454 522 38,500 -2,520 Descending FlightAware UK
01:39AM 48.6940 1.5935 103° East 452 520 38,500 3,300 Level FlightAware UK
01:39AM 48.7030 1.5780 103° East 520 598 40,000  Climbing FlightAware
01:39AM 48.6807 1.6793 103° East 452 520 38,500 -2,760 Descending FlightAware UK
01:40AM 48.6709 1.7423 103° East 450 518 38,500 3,600 Level FlightAware UK
01:40AM 48.6800 1.7330 103° East 519 597 40,000  Climbing FlightAware
01:40AM 48.6580 1.8281 103° East 452 520 38,500 -2,580 Descending FlightAware UK
01:40AM 48.6486 1.8918 103° East 450 518 38,500 3,180 Level FlightAware UK
01:41AM 48.6570 1.8870 103° East 517 595 40,000  Climbing FlightAware
01:41AM 48.6333 1.9987 103° East 450 518 38,500  Descending FlightAware UK
01:41AM 48.6370 2.0260 103° East 518 596 40,000  Climbing FlightAware
01:41AM 48.6145 2.1259 103° East 448 516 38,500 -2,700 Descending FlightAware UK
01:42AM 48.6051 2.1893 103° East 448 516 38,500 3,720 Level FlightAware UK
01:42AM 48.6160 2.1700 103° East 517 595 40,000 1,740 Climbing FlightAware
01:43AM 48.5920 2.3320 103° East 518 596 40,000  Level FlightAware
01:43AM 48.5673 2.4892 103° East 518 596 40,000  Level FlightAware ADS-B
01:44AM 48.5340 2.7012 103° East 519 597 40,000  Level FlightAware ADS-B
01:45AM 48.5080 2.8630 104° East 517 595 40,000  Level FlightAware
01:46AM 48.4860 2.9960 104° East 517 595 40,000  Level FlightAware
01:47AM 48.4610 3.1480 104° East 516 594 40,000  Level FlightAware
01:47AM 48.4350 3.3080 104° East 513 590 40,000 -60 Level FlightAware
01:49AM 48.3820 3.6270 104° East 507 583 39,900 -600 Descending FlightAware
01:50AM 48.3560 3.7800 104° East 521 600 38,600 -1,680 Descending FlightAware
01:50AM 48.3320 3.9220 104° East 526 605 37,600 -1,380 Descending FlightAware
01:51AM 48.3070 4.0690 104° East 522 601 36,800 -1,320 Descending FlightAware
01:52AM 48.2800 4.2240 105° East 509 586 35,800 -1,320 Descending FlightAware
01:52AM 48.2560 4.3660 104° East 492 566 35,000 -600 Descending FlightAware
01:53AM 48.2290 4.5140 105° East 491 565 35,000  Level FlightAware
01:54AM 48.2060 4.6500 104° East 497 572 35,000  Level FlightAware
01:55AM 48.1800 4.7990 105° East 500 575 35,000 -480 Level FlightAware
01:56AM 48.1310 5.0680 105° East 500 575 34,100 -840 Descending FlightAware
01:57AM 48.1040 5.2110 106° East 499 574 33,300 -1,140 Descending FlightAware
01:58AM 48.0700 5.3950 105° East 494 568 32,200 -1,320 Descending FlightAware
01:58AM 48.0450 5.5260 106° East 495 570 31,300 -900 Descending FlightAware
01:59AM 48.0150 5.6790 106° East 494 568 31,000 -240 Descending FlightAware
02:00AM 47.9920 5.8000 106° East 493 567 31,000  Level FlightAware
02:00AM 47.9590 5.9590 107° East 500 575 31,000 -360 Level FlightAware
02:01AM 47.9330 6.0880 107° East 495 570 30,500 -1,440 Descending FlightAware
02:02AM 47.9110 6.2020 106° East 483 556 29,200 -1,920 Descending FlightAware
02:02AM 47.8860 6.3350 106° East 465 535 27,800 -1,680 Descending FlightAware
02:03AM 47.8630 6.4790 103° East 458 527 26,600 -1,620 Descending FlightAware
02:04AM 47.8470 6.5800 103° East 452 520 25,800 -1,440 Descending FlightAware
02:05AM 47.8270 6.7100 103° East 454 522 24,700 -1,380 Descending FlightAware
02:05AM 47.8070 6.8310 104° East 454 522 23,800 -1,500 Descending FlightAware
02:06AM 47.7840 6.9710 104° East 433 498 22,600 -1,620 Descending FlightAware
02:07AM 47.7550 7.1300 105° East 413 475 21,100 -1,620 Descending FlightAware
02:07AM 47.7250 7.2280 114° Southeast 409 471 20,200 -840 Descending FlightAware
02:08AM 47.6990 7.3170 113° Southeast 375 432 20,000 -900 Descending FlightAware
02:11AM 47.6225 7.7741 108° East  Level FlightAware Approximate
02:12AM 47.5794 7.9685 108° East  Level FlightAware Approximate
02:13AM 47.5376 8.1634 108° East  Level FlightAware Approximate
02:14AM 47.4923 8.3539 102° East  Level FlightAware Approximate
02:15AM 47.4500 8.5333 113° Southeast  Level FlightAware Approximate
02:16AM 47.4647 8.5492 113° Southeast  Level Estimated
02:17AM 47.4647 8.5492 113° Southeast  Level Estimated
02:18AM 47.4647 8.5492 113° Southeast  Level Estimated
02:19AM 47.4647 8.5492 113° Southeast  Level Estimated
02:20AM 47.4647 8.5492 113° Southeast  Level Estimated
02:20AM 47.6320 7.8960 113° Southeast 253 291 9,000  Level FlightAware
02:21AM 47.4647 8.5492 113° Southeast  Level Estimated
02:22AM 47.6650 8.0210 69° East 262 302 9,000  Level FlightAware
02:23AM 47.7020 8.1600 68° East 222 255 8,000 -1,020 Descending FlightAware
02:24AM 47.7090 8.2560 84° East 220 253 6,300 -1,320 Descending FlightAware
02:25AM 47.6910 8.2670 158° South 205 236 6,100 -960 Descending FlightAware
02:27AM 47.5010 8.5042 140° Southeast  Level Estimated
02:28AM 47.4647 8.5492 140° Southeast  Level Estimated
02:28AM 47.5450 8.4370 140° Southeast 165 190 2,700  Level FlightAware
02:29AM 47.5290 8.4580 138° Southeast 149 171 2,300 -840 Descending FlightAware
02:29AM 47.5220 8.4680 136° Southeast 148 170 2,100 -900 Descending FlightAware
02:29AM 47.5110 8.4820 139° Southeast 144 166 1,800 -780 Descending FlightAware
02:30AM 47.4940 8.5050 138° Southeast 139 160 1,400 -480 Descending FlightAware
02:30AM 47.4770 8.5280 138° Southeast 140 161 1,200 -300 Descending FlightAware